Time;durP1;ratioP1;P1;durP2;ratioP2;P2;SDS_P1;SDS_P2;PMS_P1;PMS_P2;Temp;Humidity;BMP_temperature;BMP_pressure;BME280_temperature;BME280_humidity;BME280_pressure;Samples;Min_cycle;Max_cycle;Signal;HPM_P1;HPM_P2
2024/01/17 00:00:38;;;;;;;12.48;7.68;;;;;;;-6.99;100.00;95925.84;5036718;28;20037;-63
2024/01/17 00:03:06;;;;;;;16.73;8.02;;;;;;;-6.81;100.00;95924.69;5031045;28;20047;-63
2024/01/17 00:05:34;;;;;;;14.73;7.78;;;;;;;-6.73;100.00;95929.06;5043423;28;20536;-63
2024/01/17 00:08:01;;;;;;;14.85;7.70;;;;;;;-6.80;100.00;95929.78;5045711;28;20794;-66
2024/01/17 00:10:27;;;;;;;15.88;7.88;;;;;;;-6.66;100.00;95915.03;5042942;28;20044;-63
2024/01/17 00:12:54;;;;;;;14.27;7.72;;;;;;;-6.59;100.00;95911.66;5038879;28;20037;-63
2024/01/17 00:15:22;;;;;;;12.50;7.95;;;;;;;-6.71;100.00;95909.47;5036101;28;20072;-63
2024/01/17 00:17:49;;;;;;;14.88;6.60;;;;;;;-6.74;100.00;95912.47;5033395;28;20041;-63
2024/01/17 00:20:15;;;;;;;15.60;7.03;;;;;;;-6.71;100.00;95906.81;5043973;28;20412;-63
2024/01/17 00:22:42;;;;;;;15.18;7.20;;;;;;;-6.69;100.00;95891.69;5048890;28;20045;-63
2024/01/17 00:25:09;;;;;;;13.65;7.20;;;;;;;-6.46;100.00;95896.06;5040932;28;20045;-63
2024/01/17 00:27:36;;;;;;;14.73;7.22;;;;;;;-6.30;100.00;95888.97;5040282;28;20455;-63
2024/01/17 00:30:03;;;;;;;15.75;7.50;;;;;;;-6.32;100.00;95878.63;5042719;28;20127;-64
2024/01/17 00:32:34;;;;;;;12.45;7.95;;;;;;;-6.32;100.00;95880.44;5041799;28;20037;-63
2024/01/17 00:35:02;;;;;;;13.82;8.02;;;;;;;-6.29;100.00;95880.06;5035566;28;20045;-63
2024/01/17 00:37:29;;;;;;;17.77;7.68;;;;;;;-6.33;100.00;95897.25;5036977;28;20049;-63
2024/01/17 00:39:56;;;;;;;12.10;7.47;;;;;;;-6.32;100.00;95893.59;5044794;28;20097;-63
2024/01/17 00:42:22;;;;;;;14.70;6.35;;;;;;;-6.35;100.00;95894.00;5041337;28;20095;-63
2024/01/17 00:44:49;;;;;;;11.52;6.95;;;;;;;-6.23;100.00;95881.97;5031873;28;20060;-63
2024/01/17 00:47:15;;;;;;;15.10;7.65;;;;;;;-6.20;100.00;95872.91;5051014;28;20140;-63
2024/01/17 00:49:42;;;;;;;15.60;7.80;;;;;;;-6.31;100.00;95871.53;5041772;28;20076;-63
2024/01/17 00:52:09;;;;;;;12.82;7.93;;;;;;;-6.34;100.00;95859.53;5044552;28;20127;-63
2024/01/17 00:54:36;;;;;;;10.90;6.95;;;;;;;-6.30;100.00;95855.53;5031951;28;20037;-63
2024/01/17 00:57:03;;;;;;;12.82;6.80;;;;;;;-6.35;100.00;95851.84;5041483;28;20038;-63
2024/01/17 00:59:30;;;;;;;10.80;6.80;;;;;;;-6.15;100.00;95850.25;5038993;28;20047;-63
2024/01/17 01:01:57;;;;;;;15.40;7.18;;;;;;;-6.19;100.00;95856.09;5046062;28;20037;-63
2024/01/17 01:04:23;;;;;;;16.50;7.80;;;;;;;-6.43;100.00;95855.38;5036273;28;20064;-63
2024/01/17 01:06:50;;;;;;;13.32;6.85;;;;;;;-6.43;100.00;95869.38;5035144;28;20098;-63
2024/01/17 01:09:16;;;;;;;16.13;7.05;;;;;;;-6.32;100.00;95867.25;5040515;28;20136;-63
2024/01/17 01:11:43;;;;;;;14.20;8.15;;;;;;;-6.08;100.00;95865.34;5033225;28;20053;-63
2024/01/17 01:14:10;;;;;;;15.13;8.10;;;;;;;-6.05;100.00;95855.25;5033977;28;20049;-63
2024/01/17 01:16:36;;;;;;;14.57;7.82;;;;;;;-5.88;100.00;95855.00;5043192;28;20389;-63
2024/01/17 01:19:04;;;;;;;14.63;6.93;;;;;;;-5.82;100.00;95845.53;5027150;28;20386;-63
2024/01/17 01:21:31;;;;;;;13.48;7.63;;;;;;;-5.77;100.00;95848.44;5029338;28;20244;-63
2024/01/17 01:23:58;;;;;;;14.68;6.82;;;;;;;-5.72;100.00;95843.41;5032328;28;20061;-63
2024/01/17 01:26:24;;;;;;;13.10;7.28;;;;;;;-5.68;100.00;95843.88;5038179;28;20044;-62
2024/01/17 01:28:51;;;;;;;18.15;8.23;;;;;;;-5.61;100.00;95837.66;5031959;28;20508;-63
2024/01/17 01:31:17;;;;;;;16.23;8.63;;;;;;;-5.54;100.00;95840.34;5039301;28;20044;-63
2024/01/17 01:33:44;;;;;;;15.77;7.97;;;;;;;-5.54;100.00;95832.44;5033294;28;20087;-63
2024/01/17 01:36:11;;;;;;;16.00;8.32;;;;;;;-5.38;100.00;95822.66;5028504;28;20041;-63
2024/01/17 01:38:37;;;;;;;12.02;7.18;;;;;;;-5.36;100.00;95821.44;5048669;28;20040;-63
2024/01/17 01:41:04;;;;;;;14.48;7.68;;;;;;;-5.35;100.00;95819.59;5040566;28;20055;-63
2024/01/17 01:43:30;;;;;;;18.45;8.20;;;;;;;-5.23;100.00;95817.28;5032225;28;20045;-63
2024/01/17 01:46:03;;;;;;;14.23;7.85;;;;;;;-5.15;100.00;95805.78;5030934;28;20037;-63
2024/01/17 01:48:33;;;;;;;16.63;7.40;;;;;;;-5.32;100.00;95799.97;5034881;28;20663;-63
2024/01/17 01:51:00;;;;;;;16.95;8.50;;;;;;;-5.23;100.00;95794.34;5029980;28;20095;-63
2024/01/17 01:53:30;;;;;;;19.92;8.43;;;;;;;-5.14;100.00;95799.47;5040824;28;20044;-63
2024/01/17 01:55:57;;;;;;;16.73;8.45;;;;;;;-4.97;100.00;95798.19;5032029;28;20060;-63
2024/01/17 01:58:25;;;;;;;16.48;7.88;;;;;;;-5.04;100.00;95796.50;5029906;28;20095;-63
2024/01/17 02:00:56;;;;;;;17.98;7.90;;;;;;;-4.88;100.00;95790.94;5033639;28;20044;-63
2024/01/17 02:03:23;;;;;;;16.13;9.00;;;;;;;-4.85;100.00;95785.28;5039620;28;20516;-64
2024/01/17 02:05:50;;;;;;;15.18;8.38;;;;;;;-4.82;100.00;95768.25;5034857;28;20111;-64
2024/01/17 02:08:17;;;;;;;15.02;7.68;;;;;;;-4.78;100.00;95766.00;5044242;28;20111;-63
2024/01/17 02:10:44;;;;;;;13.20;6.90;;;;;;;-4.74;100.00;95759.34;5035206;28;20049;-64
2024/01/17 02:13:11;;;;;;;16.23;8.75;;;;;;;-4.74;100.00;95757.53;5037077;28;20564;-64
2024/01/17 02:15:38;;;;;;;14.60;7.55;;;;;;;-4.67;100.00;95762.00;5042705;28;21581;-64
2024/01/17 02:18:04;;;;;;;16.52;8.82;;;;;;;-4.51;100.00;95760.84;5049428;28;20423;-64
2024/01/17 02:20:32;;;;;;;17.88;9.18;;;;;;;-4.35;100.00;95752.59;5030752;28;20059;-63
2024/01/17 02:22:58;;;;;;;15.98;9.00;;;;;;;-4.34;100.00;95748.97;5038158;28;20037;-63
2024/01/17 02:25:25;;;;;;;17.10;9.48;;;;;;;-4.38;100.00;95745.09;5038796;28;20046;-64
2024/01/17 02:27:51;;;;;;;18.58;9.07;;;;;;;-4.28;100.00;95746.53;5036257;28;20518;-64
2024/01/17 02:30:18;;;;;;;20.50;9.05;;;;;;;-4.27;100.00;95743.69;5033530;28;20040;-63
2024/01/17 02:32:45;;;;;;;16.02;8.93;;;;;;;-4.24;100.00;95734.56;5031213;28;20666;-64
2024/01/17 02:35:12;;;;;;;15.18;8.93;;;;;;;-4.20;100.00;95727.88;5029673;28;20045;-63
2024/01/17 02:37:39;;;;;;;18.23;9.52;;;;;;;-4.18;100.00;95728.47;5043783;28;20684;-63
2024/01/17 02:40:05;;;;;;;15.98;8.45;;;;;;;-4.16;100.00;95721.16;5038305;28;20041;-63
2024/01/17 02:42:32;;;;;;;17.02;8.55;;;;;;;-4.14;100.00;95719.13;5039775;28;20040;-64
2024/01/17 02:44:58;;;;;;;15.45;8.88;;;;;;;-4.11;100.00;95716.09;5038447;28;20102;-64
2024/01/17 02:47:25;;;;;;;16.85;8.25;;;;;;;-4.06;100.00;95713.66;5030929;28;20064;-63
2024/01/17 02:49:51;;;;;;;14.98;7.93;;;;;;;-4.03;100.00;95719.56;5036615;28;20055;-63
2024/01/17 02:52:18;;;;;;;16.42;9.38;;;;;;;-3.93;100.00;95706.75;5045188;28;20048;-64
2024/01/17 02:54:45;;;;;;;16.67;8.68;;;;;;;-3.93;100.00;95702.31;5044527;28;20201;-63
2024/01/17 02:57:11;;;;;;;17.70;9.00;;;;;;;-3.95;100.00;95696.38;5043360;28;20531;-64
2024/01/17 02:59:38;;;;;;;19.67;9.38;;;;;;;-4.01;100.00;95689.28;5043587;28;20048;-63
2024/01/17 03:02:04;;;;;;;19.98;9.85;;;;;;;-3.95;100.00;95684.97;5040056;28;20056;-63
2024/01/17 03:04:31;;;;;;;16.77;9.70;;;;;;;-3.86;100.00;95675.88;5051309;28;20476;-63
2024/01/17 03:06:58;;;;;;;18.25;9.93;;;;;;;-3.86;100.00;95670.56;5041694;28;20547;-63
2024/01/17 03:09:25;;;;;;;22.02;10.52;;;;;;;-3.81;100.00;95668.13;5033242;28;20044;-63
2024/01/17 03:11:52;;;;;;;20.00;9.63;;;;;;;-3.69;100.00;95656.94;5040540;28;20048;-63
2024/01/17 03:14:18;;;;;;;21.05;10.43;;;;;;;-3.69;100.00;95664.88;5034147;28;20042;-63
2024/01/17 03:16:45;;;;;;;18.98;9.88;;;;;;;-3.73;100.00;95663.66;5038796;28;20049;-63
2024/01/17 03:19:14;;;;;;;21.85;10.75;;;;;;;-3.72;100.00;95660.78;5043901;28;20036;-63
2024/01/17 03:21:46;;;;;;;17.48;9.88;;;;;;;-3.71;100.00;95661.59;5040657;28;20041;-63
2024/01/17 03:24:13;;;;;;;21.17;10.75;;;;;;;-3.63;100.00;95657.94;5040437;28;20041;-63
2024/01/17 03:26:39;;;;;;;18.35;10.15;;;;;;;-3.57;100.00;95654.50;5030768;28;20064;-63
2024/01/17 03:29:06;;;;;;;17.80;10.77;;;;;;;-3.54;100.00;95656.75;5035626;28;20141;-63
2024/01/17 03:31:32;;;;;;;19.58;9.55;;;;;;;-3.46;100.00;95659.16;5032141;28;20045;-64
2024/01/17 03:33:59;;;;;;;17.35;9.80;;;;;;;-3.49;100.00;95658.75;5039768;28;20045;-63
2024/01/17 03:36:26;;;;;;;22.17;11.25;;;;;;;-3.53;100.00;95647.78;5034950;28;20045;-63
2024/01/17 03:38:54;;;;;;;22.58;9.65;;;;;;;-3.50;100.00;95647.38;5037564;28;20045;-63
2024/01/17 03:41:21;;;;;;;18.55;10.70;;;;;;;-3.55;100.00;95647.97;5034327;28;20041;-63
2024/01/17 03:43:50;;;;;;;21.25;11.15;;;;;;;-3.54;100.00;95643.50;5048068;28;20044;-63
2024/01/17 03:46:16;;;;;;;20.80;10.95;;;;;;;-3.51;100.00;95631.69;5034429;28;20052;-64
2024/01/17 03:48:43;;;;;;;17.92;9.98;;;;;;;-3.44;100.00;95627.19;5031960;28;20534;-64
2024/01/17 03:51:10;;;;;;;19.77;10.85;;;;;;;-3.31;100.00;95621.88;5045186;28;20616;-64
2024/01/17 03:53:36;;;;;;;19.63;10.68;;;;;;;-3.22;100.00;95606.59;5039881;28;20611;-64
2024/01/17 03:56:03;;;;;;;17.35;10.43;;;;;;;-3.18;100.00;95604.31;5034069;28;20052;-64
2024/01/17 03:58:30;;;;;;;19.40;9.68;;;;;;;-2.99;100.00;95601.84;5039191;28;20041;-64
2024/01/17 04:01:01;;;;;;;24.52;12.23;;;;;;;-3.08;100.00;95588.81;5050700;28;20120;-64
2024/01/17 04:03:28;;;;;;;19.48;10.05;;;;;;;-3.17;100.00;95579.50;5040337;28;20114;-63
2024/01/17 04:05:54;;;;;;;22.60;11.02;;;;;;;-3.18;100.00;95564.59;5037590;28;20079;-63
2024/01/17 04:08:21;;;;;;;22.95;12.02;;;;;;;-3.19;100.00;95557.69;5037080;28;20042;-64
2024/01/17 04:10:48;;;;;;;25.02;11.15;;;;;;;-3.21;100.00;95557.09;5044806;28;20037;-63
2024/01/17 04:13:14;;;;;;;22.83;11.93;;;;;;;-3.21;100.00;95562.41;5043157;28;20050;-63
2024/01/17 04:15:42;;;;;;;25.17;12.20;;;;;;;-3.18;100.00;95544.25;5043609;28;20041;-63
2024/01/17 04:18:08;;;;;;;20.17;11.73;;;;;;;-3.11;100.00;95544.22;5033886;28;20107;-63
2024/01/17 04:20:35;;;;;;;21.30;11.40;;;;;;;-3.01;100.00;95539.31;5040513;28;20069;-63
2024/01/17 04:23:05;;;;;;;20.70;11.40;;;;;;;-2.95;100.00;95534.97;5041763;28;20127;-63
2024/01/17 04:25:33;;;;;;;22.55;12.05;;;;;;;-2.90;100.00;95529.06;5035699;28;20135;-64
2024/01/17 04:28:09;;;;;;;21.40;11.43;;;;;;;-2.84;100.00;95530.03;5034144;28;20069;-63
2024/01/17 04:30:36;;;;;;;21.23;10.35;;;;;;;-2.77;100.00;95526.31;5035392;28;20045;-63
2024/01/17 04:33:02;;;;;;;21.95;11.13;;;;;;;-2.78;100.00;95519.41;5033739;28;20499;-63
2024/01/17 04:35:29;;;;;;;22.02;11.60;;;;;;;-2.82;100.00;95512.91;5041462;28;20475;-63
2024/01/17 04:37:56;;;;;;;24.80;11.88;;;;;;;-2.83;100.00;95511.28;5036742;28;20071;-63
2024/01/17 04:40:23;;;;;;;24.50;11.88;;;;;;;-2.86;100.00;95511.72;5037994;28;20029;-63
2024/01/17 04:42:49;;;;;;;22.42;12.13;;;;;;;-2.86;100.00;95506.41;5032823;28;20055;-63
2024/01/17 04:45:19;;;;;;;28.73;12.23;;;;;;;-2.82;100.00;95501.50;5042691;28;20135;-63
2024/01/17 04:47:47;;;;;;;23.75;11.48;;;;;;;-2.81;100.00;95501.28;5042670;28;20052;-63
2024/01/17 04:50:15;;;;;;;26.10;11.85;;;;;;;-2.68;100.00;95488.97;5036532;28;20555;-63
2024/01/17 04:52:42;;;;;;;22.15;11.30;;;;;;;-2.68;100.00;95479.22;5040835;28;20045;-63
2024/01/17 04:55:08;;;;;;;22.50;12.98;;;;;;;-2.69;100.00;95482.88;5034423;28;20048;-64
2024/01/17 04:57:35;;;;;;;22.40;12.13;;;;;;;-2.69;100.00;95474.91;5044264;28;20107;-63
2024/01/17 05:00:05;;;;;;;22.38;12.77;;;;;;;-2.66;100.00;95477.13;5046233;28;20625;-63
2024/01/17 05:02:31;;;;;;;19.05;11.60;;;;;;;-2.62;100.00;95466.91;5038974;28;20065;-64
2024/01/17 05:04:58;;;;;;;24.63;12.45;;;;;;;-2.65;100.00;95460.22;5038476;28;20124;-63
2024/01/17 05:07:25;;;;;;;26.80;13.02;;;;;;;-2.59;100.00;95460.41;5046605;28;20052;-63
2024/01/17 05:09:51;;;;;;;26.23;12.32;;;;;;;-2.59;100.00;95463.84;5032005;28;20437;-63
2024/01/17 05:12:18;;;;;;;24.17;12.90;;;;;;;-2.55;100.00;95454.44;5032796;28;21522;-64
2024/01/17 05:14:44;;;;;;;22.40;12.05;;;;;;;-2.51;100.00;95452.97;5030593;28;20043;-64
2024/01/17 05:17:12;;;;;;;23.38;13.02;;;;;;;-2.45;100.00;95439.88;5039423;28;20041;-63
2024/01/17 05:19:39;;;;;;;24.33;12.68;;;;;;;-2.43;100.00;95433.31;5031938;28;20274;-63
2024/01/17 05:22:06;;;;;;;25.05;12.65;;;;;;;-2.37;100.00;95429.81;5037091;28;20048;-63
2024/01/17 05:24:32;;;;;;;22.67;12.35;;;;;;;-2.28;100.00;95411.00;5040581;28;20516;-63
2024/01/17 05:26:59;;;;;;;23.27;11.77;;;;;;;-2.25;100.00;95407.91;5044301;28;20039;-64
2024/01/17 05:29:26;;;;;;;27.05;13.75;;;;;;;-2.20;100.00;95407.22;5040074;28;20056;-63
2024/01/17 05:31:52;;;;;;;24.67;12.88;;;;;;;-2.17;100.00;95406.81;5037204;28;20091;-63
2024/01/17 05:34:19;;;;;;;25.30;13.07;;;;;;;-2.12;100.00;95391.03;5034468;28;20107;-64
2024/01/17 05:36:45;;;;;;;27.17;13.45;;;;;;;-2.06;100.00;95392.00;5033655;28;20537;-64
2024/01/17 05:39:12;;;;;;;21.33;13.27;;;;;;;-1.99;100.00;95374.97;5043340;28;20124;-63
2024/01/17 05:41:39;;;;;;;26.65;12.95;;;;;;;-1.92;100.00;95374.09;5037068;28;20352;-63
2024/01/17 05:44:05;;;;;;;25.77;12.38;;;;;;;-1.88;100.00;95370.78;5036795;28;20049;-63
2024/01/17 05:46:32;;;;;;;25.83;13.98;;;;;;;-1.85;100.00;95367.69;5041391;28;20045;-64
2024/01/17 05:48:59;;;;;;;28.25;14.40;;;;;;;-1.80;100.00;95360.91;5037378;28;20679;-63
2024/01/17 05:51:26;;;;;;;25.20;14.73;;;;;;;-1.78;100.00;95359.63;5044966;28;20065;-64
2024/01/17 05:53:52;;;;;;;24.75;14.30;;;;;;;-1.76;100.00;95349.63;5049623;28;20543;-63
2024/01/17 05:56:19;;;;;;;29.65;14.57;;;;;;;-1.74;100.00;95344.88;5036820;28;20041;-64
2024/01/17 05:58:45;;;;;;;25.80;15.30;;;;;;;-1.68;100.00;95342.38;5038398;28;20040;-63
2024/01/17 06:01:12;;;;;;;32.15;17.08;;;;;;;-1.68;100.00;95340.53;5038797;28;20041;-63
2024/01/17 06:03:40;;;;;;;40.53;17.80;;;;;;;-1.62;100.00;95342.28;5039357;28;20045;-64
2024/01/17 06:06:07;;;;;;;49.38;21.92;;;;;;;-1.63;100.00;95330.03;5042859;28;20127;-64
2024/01/17 06:08:34;;;;;;;45.40;21.10;;;;;;;-1.62;100.00;95325.56;5041360;28;20577;-63
2024/01/17 06:11:01;;;;;;;34.25;16.42;;;;;;;-1.55;100.00;95320.16;5043541;28;20083;-63
2024/01/17 06:13:27;;;;;;;33.63;16.25;;;;;;;-1.48;100.00;95324.34;5038482;28;20052;-63
2024/01/17 06:15:54;;;;;;;37.20;16.23;;;;;;;-1.45;100.00;95312.44;5038788;28;20052;-63
2024/01/17 06:18:20;;;;;;;32.72;16.42;;;;;;;-1.44;100.00;95312.22;5035226;28;20057;-64
2024/01/17 06:20:47;;;;;;;20.55;13.52;;;;;;;-1.40;100.00;95306.47;5044582;28;20043;-63
2024/01/17 06:23:14;;;;;;;24.52;13.18;;;;;;;-1.40;100.00;95307.25;5032143;28;20052;-63
2024/01/17 06:25:40;;;;;;;26.63;12.27;;;;;;;-1.37;100.00;95292.75;5038798;28;20664;-64
2024/01/17 06:28:07;;;;;;;26.92;12.93;;;;;;;-1.39;100.00;95289.50;5043102;28;20045;-64
2024/01/17 06:30:33;;;;;;;24.48;13.35;;;;;;;-1.40;100.00;95280.72;5032698;28;20045;-64
2024/01/17 06:33:00;;;;;;;25.73;13.30;;;;;;;-1.40;100.00;95288.69;5055262;28;20048;-64
2024/01/17 06:35:27;;;;;;;25.58;12.93;;;;;;;-1.37;100.00;95285.56;5037246;28;20512;-64
2024/01/17 06:37:53;;;;;;;21.20;11.82;;;;;;;-1.38;100.00;95278.66;5039801;28;20071;-64
2024/01/17 06:40:20;;;;;;;28.77;12.50;;;;;;;-1.37;100.00;95268.84;5035418;28;22020;-64
2024/01/17 06:42:46;;;;;;;25.55;12.30;;;;;;;-1.32;100.00;95261.81;5044579;28;20045;-64
2024/01/17 06:45:13;;;;;;;29.92;13.18;;;;;;;-1.27;100.00;95260.31;5047254;28;20498;-60
2024/01/17 06:47:39;;;;;;;27.55;13.95;;;;;;;-1.24;100.00;95257.19;5043090;28;20064;-64
2024/01/17 06:50:07;;;;;;;23.77;12.23;;;;;;;-1.18;100.00;95257.09;5028122;28;20041;-64
2024/01/17 06:52:33;;;;;;;25.38;13.18;;;;;;;-1.18;100.00;95248.34;5037175;28;20205;-64
2024/01/17 06:55:00;;;;;;;24.33;12.20;;;;;;;-1.21;100.00;95243.47;5036624;28;20033;-64
2024/01/17 06:57:26;;;;;;;26.33;12.45;;;;;;;-1.16;100.00;95243.59;5038853;28;20044;-64
2024/01/17 06:59:53;;;;;;;29.05;12.73;;;;;;;-1.12;100.00;95242.09;5041037;28;20048;-63
2024/01/17 07:02:20;;;;;;;22.23;11.93;;;;;;;-1.09;100.00;95238.16;5035399;28;20123;-64
2024/01/17 07:04:46;;;;;;;21.92;11.15;;;;;;;-1.03;100.00;95237.25;5042423;28;20106;-64
2024/01/17 07:07:13;;;;;;;20.92;10.93;;;;;;;-1.03;100.00;95233.78;5033533;28;20052;-64
2024/01/17 07:09:41;;;;;;;23.25;11.38;;;;;;;-1.01;100.00;95223.72;5036175;28;20048;-63
2024/01/17 07:12:07;;;;;;;20.95;11.27;;;;;;;-0.98;100.00;95217.94;5040881;28;20094;-63
2024/01/17 07:14:34;;;;;;;25.33;12.10;;;;;;;-0.97;100.00;95211.59;5041296;28;20537;-63
2024/01/17 07:17:01;;;;;;;22.38;11.30;;;;;;;-0.95;100.00;95209.53;5035764;28;20632;-64
2024/01/17 07:19:27;;;;;;;22.30;10.95;;;;;;;-0.97;100.00;95201.78;5038227;28;20045;-63
2024/01/17 07:21:54;;;;;;;21.90;11.50;;;;;;;-0.94;100.00;95203.97;5040936;28;20041;-63
2024/01/17 07:24:21;;;;;;;20.60;11.88;;;;;;;-0.90;100.00;95192.88;5036764;28;20423;-63
2024/01/17 07:26:47;;;;;;;20.27;10.15;;;;;;;-0.84;100.00;95191.94;5043013;28;20044;-64
2024/01/17 07:29:14;;;;;;;21.40;11.70;;;;;;;-0.80;100.00;95185.13;5037932;28;20053;-63
2024/01/17 07:31:41;;;;;;;19.80;10.88;;;;;;;-0.71;100.00;95183.72;5047360;28;20116;-64
2024/01/17 07:34:07;;;;;;;23.55;12.15;;;;;;;-0.67;100.00;95179.56;5039505;28;20044;-64
2024/01/17 07:36:34;;;;;;;21.60;11.10;;;;;;;-0.57;100.00;95175.47;5038019;28;20071;-63
2024/01/17 07:39:00;;;;;;;20.67;11.75;;;;;;;-0.57;100.00;95170.97;5032524;28;20124;-64
2024/01/17 07:41:29;;;;;;;21.67;11.50;;;;;;;-0.62;100.00;95165.56;5033730;28;20057;-63
2024/01/17 07:43:56;;;;;;;21.25;12.60;;;;;;;-0.63;100.00;95163.16;5031159;28;20093;-64
2024/01/17 07:46:22;;;;;;;21.42;12.05;;;;;;;-0.63;100.00;95163.16;5037550;28;20045;-63
2024/01/17 07:48:49;;;;;;;20.15;11.80;;;;;;;-0.56;100.00;95155.81;5042702;28;20048;-63
2024/01/17 07:51:15;;;;;;;23.60;12.48;;;;;;;-0.60;100.00;95155.50;5035152;28;20056;-64
2024/01/17 07:53:42;;;;;;;26.35;13.30;;;;;;;-0.63;100.00;95144.53;5031544;28;20065;-64
2024/01/17 07:56:09;;;;;;;25.67;13.20;;;;;;;-0.63;100.00;95144.53;5033165;28;20057;-64
2024/01/17 07:58:36;;;;;;;27.25;12.90;;;;;;;-0.63;100.00;95147.19;5040198;28;20048;-63
2024/01/17 08:01:05;;;;;;;23.90;12.48;;;;;;;-0.51;100.00;95150.63;5042701;28;20561;-63
2024/01/17 08:03:31;;;;;;;20.08;11.82;;;;;;;-0.48;100.00;95146.69;5033494;28;20033;-64
2024/01/17 08:05:58;;;;;;;23.73;13.07;;;;;;;-0.48;100.00;95147.47;5039343;28;20559;-64
2024/01/17 08:08:25;;;;;;;23.70;11.90;;;;;;;-0.42;100.00;95138.56;5033209;28;20048;-64
2024/01/17 08:10:52;;;;;;;25.00;12.77;;;;;;;-0.39;100.00;95137.28;5034419;28;20065;-64
2024/01/17 08:13:18;;;;;;;21.55;12.15;;;;;;;-0.42;100.00;95135.09;5038897;28;20423;-64
2024/01/17 08:15:45;;;;;;;22.73;12.13;;;;;;;-0.40;100.00;95127.69;5047110;28;20045;-64
2024/01/17 08:18:13;;;;;;;25.17;12.38;;;;;;;-0.41;100.00;95126.88;5045593;28;20226;-63
2024/01/17 08:20:40;;;;;;;24.27;12.70;;;;;;;-0.38;100.00;95127.47;5036830;28;20053;-64
2024/01/17 08:23:06;;;;;;;23.65;12.25;;;;;;;-0.33;100.00;95122.22;5037960;28;20055;-64
2024/01/17 08:25:33;;;;;;;24.42;11.77;;;;;;;-0.29;100.00;95118.06;5036047;28;20041;-64
2024/01/17 08:27:59;;;;;;;21.60;12.98;;;;;;;-0.29;100.00;95112.72;5035861;28;20048;-64
2024/01/17 08:30:26;;;;;;;23.92;12.43;;;;;;;-0.24;100.00;95112.00;5035506;28;20049;-64
2024/01/17 08:32:53;;;;;;;22.77;12.02;;;;;;;-0.18;100.00;95108.41;5040315;28;20071;-64
2024/01/17 08:35:20;;;;;;;26.77;13.75;;;;;;;-0.15;100.00;95103.41;5046112;28;20082;-64
2024/01/17 08:37:47;;;;;;;23.33;12.40;;;;;;;-0.09;100.00;95098.97;5026314;28;20079;-64
2024/01/17 08:40:14;;;;;;;34.95;16.35;;;;;;;-0.08;100.00;95095.25;5043648;28;20076;-64
2024/01/17 08:42:43;;;;;;;22.50;12.77;;;;;;;0.01;100.00;95095.69;5041860;28;20045;-64
2024/01/17 08:45:10;;;;;;;24.63;13.35;;;;;;;0.02;100.00;95091.16;5037568;28;20127;-64
2024/01/17 08:47:38;;;;;;;21.55;11.80;;;;;;;0.06;100.00;95084.31;5035953;28;20045;-64
2024/01/17 08:50:06;;;;;;;25.10;12.57;;;;;;;0.10;100.00;95080.94;5042157;28;20048;-64
2024/01/17 08:52:33;;;;;;;23.27;12.27;;;;;;;0.18;100.00;95069.06;5049465;28;20047;-64
2024/01/17 08:55:01;;;;;;;24.65;12.40;;;;;;;0.21;100.00;95067.75;5042751;28;20036;-64
2024/01/17 08:57:28;;;;;;;28.25;12.43;;;;;;;0.27;100.00;95055.34;5033430;28;20049;-64
2024/01/17 08:59:54;;;;;;;24.58;13.38;;;;;;;0.28;100.00;95054.28;5038375;28;20376;-64
2024/01/17 09:02:21;;;;;;;21.95;11.88;;;;;;;0.33;100.00;95051.72;5041768;28;20048;-64
2024/01/17 09:04:47;;;;;;;19.67;11.18;;;;;;;0.38;100.00;95049.13;5046288;28;20607;-64
2024/01/17 09:07:14;;;;;;;20.20;10.88;;;;;;;0.46;100.00;95037.25;5045415;28;20489;-63
2024/01/17 09:09:41;;;;;;;20.75;12.13;;;;;;;0.53;100.00;95035.22;5048076;28;20068;-63
2024/01/17 09:12:08;;;;;;;18.80;9.77;;;;;;;0.62;100.00;95031.06;5033292;28;20126;-64
2024/01/17 09:14:34;;;;;;;18.27;10.52;;;;;;;0.66;100.00;95020.72;5043084;28;20048;-64
2024/01/17 09:17:03;;;;;;;16.33;9.85;;;;;;;0.74;100.00;95014.97;5030377;28;20041;-63
2024/01/17 09:19:30;;;;;;;19.02;9.73;;;;;;;0.83;100.00;95017.19;5041067;28;20076;-64
2024/01/17 09:21:59;;;;;;;17.55;9.60;;;;;;;0.87;100.00;95019.13;5032376;28;20048;-64
2024/01/17 09:24:25;;;;;;;18.23;9.35;;;;;;;0.94;100.00;95012.78;5037008;28;20055;-64
2024/01/17 09:26:52;;;;;;;16.92;8.40;;;;;;;1.05;100.00;95011.88;5044445;28;20656;-63
2024/01/17 09:29:19;;;;;;;16.55;8.65;;;;;;;1.14;100.00;95006.91;5039606;28;20049;-63
2024/01/17 09:31:47;;;;;;;16.30;8.40;;;;;;;1.25;100.00;95002.50;5043190;28;20042;-64
2024/01/17 09:34:14;;;;;;;14.30;7.53;;;;;;;1.20;100.00;94997.91;5042528;28;20048;-64
2024/01/17 09:36:41;;;;;;;15.85;8.32;;;;;;;1.24;100.00;94988.34;5030152;28;20047;-64
2024/01/17 09:39:08;;;;;;;13.63;7.65;;;;;;;1.24;100.00;94971.53;5028994;28;20045;-64
2024/01/17 09:41:35;;;;;;;15.38;8.35;;;;;;;1.25;100.00;94976.63;5032953;28;20041;-64
2024/01/17 09:44:02;;;;;;;14.57;7.82;;;;;;;1.31;100.00;94969.47;5038342;28;20052;-64
2024/01/17 09:46:34;;;;;;;11.52;7.22;;;;;;;1.33;100.00;94971.91;5044314;28;20037;-64
2024/01/17 09:49:01;;;;;;;14.82;8.05;;;;;;;1.29;100.00;94968.94;5041679;28;20052;-64
2024/01/17 09:51:32;;;;;;;16.15;8.50;;;;;;;1.28;100.00;94969.97;5034719;28;20042;-64
2024/01/17 09:54:04;;;;;;;13.88;7.25;;;;;;;1.32;100.00;94965.75;5039063;28;20041;-64
2024/01/17 09:56:32;;;;;;;14.23;7.95;;;;;;;1.34;100.00;94960.97;5035082;28;20041;-64
2024/01/17 09:59:07;;;;;;;12.48;6.95;;;;;;;1.36;100.00;94953.53;5032082;28;20051;-64
2024/01/17 10:01:36;;;;;;;12.60;7.22;;;;;;;1.41;100.00;94944.78;5042836;28;20037;-64
2024/01/17 10:04:04;;;;;;;13.15;7.10;;;;;;;1.47;100.00;94934.97;5032594;28;20037;-64
2024/01/17 10:06:31;;;;;;;13.73;7.13;;;;;;;1.48;100.00;94932.03;5033803;28;20052;-64
2024/01/17 10:08:59;;;;;;;13.18;8.07;;;;;;;1.48;100.00;94936.56;5034739;28;20412;-64
2024/01/17 10:11:26;;;;;;;12.70;6.45;;;;;;;1.51;100.00;94925.41;5039036;28;20050;-64
2024/01/17 10:13:52;;;;;;;12.90;6.82;;;;;;;1.50;100.00;94915.75;5048285;28;20653;-64
2024/01/17 10:16:19;;;;;;;16.80;7.07;;;;;;;1.54;100.00;94911.53;5038922;28;20106;-64
2024/01/17 10:18:46;;;;;;;12.25;5.60;;;;;;;1.54;100.00;94895.53;5033575;28;20056;-64
2024/01/17 10:21:13;;;;;;;11.88;5.93;;;;;;;1.54;100.00;94892.84;5035614;28;20056;-64
2024/01/17 10:23:40;;;;;;;12.65;6.65;;;;;;;1.56;100.00;94882.75;5051390;28;20041;-63
2024/01/17 10:26:08;;;;;;;10.82;6.15;;;;;;;1.56;100.00;94867.53;5038867;28;20131;-64
2024/01/17 10:28:34;;;;;;;12.40;5.35;;;;;;;1.53;100.00;94862.75;5037475;28;20045;-64
2024/01/17 10:31:07;;;;;;;8.25;4.95;;;;;;;1.55;100.00;94859.81;5042589;28;20049;-63
2024/01/17 10:33:34;;;;;;;10.25;5.65;;;;;;;1.58;100.00;94853.94;5036315;28;20047;-64
2024/01/17 10:36:01;;;;;;;12.05;6.93;;;;;;;1.58;100.00;94837.94;5044211;28;20041;-63
2024/01/17 10:38:32;;;;;;;19.02;9.63;;;;;;;1.59;100.00;94823.56;5036016;28;20091;-63
2024/01/17 10:41:05;;;;;;;17.40;9.33;;;;;;;1.63;100.00;94819.31;5035415;28;20048;-64
2024/01/17 10:43:55;;;;;;;19.45;8.25;;;;;;;1.65;100.00;94811.84;5036167;28;20793;-64
2024/01/17 10:46:23;;;;;;;9.90;4.88;;;;;;;1.66;100.00;94810.78;5043369;28;20051;-64
2024/01/17 10:48:50;;;;;;;10.25;4.95;;;;;;;1.70;100.00;94808.44;5040346;28;20045;-64
2024/01/17 10:51:22;;;;;;;9.25;5.15;;;;;;;1.71;100.00;94803.88;5035533;28;20131;-64
2024/01/17 10:53:54;;;;;;;10.45;6.82;;;;;;;1.73;100.00;94788.44;5033567;28;20462;-64
2024/01/17 10:56:26;;;;;;;8.57;5.10;;;;;;;1.80;100.00;94791.63;5042204;28;20072;-64
2024/01/17 10:58:55;;;;;;;12.18;6.75;;;;;;;1.76;100.00;94782.56;5044781;28;20072;-64
2024/01/17 11:01:31;;;;;;;9.23;5.40;;;;;;;1.81;100.00;94769.25;5033030;28;20053;-64
2024/01/17 11:04:10;;;;;;;10.68;6.07;;;;;;;1.82;100.00;94762.84;5038124;28;20036;-64
2024/01/17 11:06:38;;;;;;;12.23;6.78;;;;;;;1.84;100.00;94754.59;5031817;28;20043;-64
2024/01/17 11:09:07;;;;;;;9.98;5.18;;;;;;;1.80;100.00;94755.09;5044988;28;20531;-63
2024/01/17 11:11:35;;;;;;;9.40;6.28;;;;;;;1.82;100.00;94738.84;5048930;28;20037;-64
2024/01/17 11:14:03;;;;;;;10.15;6.00;;;;;;;1.78;100.00;94741.22;5047186;28;20072;-63